Time;durP1;ratioP1;P1;durP2;ratioP2;P2;SDS_P1;SDS_P2;PMS_P1;PMS_P2;Temp;Humidity;BMP_temperature;BMP_pressure;BME280_temperature;BME280_humidity;BME280_pressure;Samples;Min_cycle;Max_cycle;Signal;HPM_P1;HPM_P2
2023/03/29 00:00:07;;;;;;;255.05;71.10;;;;;;;4.12;54.24;99888.28;349147;28;5273;-74
2023/03/29 00:00:18;;;;;;;253.63;70.95;;;;;;;4.15;54.68;99893.44;347419;28;1877;-74
2023/03/29 00:00:28;;;;;;;255.25;71.97;;;;;;;4.21;54.27;99902.88;347647;28;900;-74
2023/03/29 00:00:38;;;;;;;255.40;73.03;;;;;;;4.23;54.96;99906.31;345987;28;2746;-74
2023/03/29 00:00:49;;;;;;;257.60;74.68;;;;;;;4.24;54.57;99902.84;347384;28;4774;-74
2023/03/29 00:01:00;;;;;;;258.57;75.10;;;;;;;4.20;54.49;99896.00;347543;28;1475;-75
2023/03/29 00:01:10;;;;;;;258.73;75.32;;;;;;;4.13;54.15;99890.00;344859;28;1231;-75
2023/03/29 00:01:24;;;;;;;259.63;74.97;;;;;;;4.11;54.58;99902.13;346831;28;1339;-75
2023/03/29 00:01:35;;;;;;;258.42;73.60;;;;;;;4.15;54.68;99893.44;346266;28;5319;-74
2023/03/29 00:01:46;;;;;;;257.92;73.93;;;;;;;4.15;54.63;99898.63;350390;28;971;-75
2023/03/29 00:01:57;;;;;;;257.75;73.45;;;;;;;4.18;54.47;99893.41;351722;28;859;-75
2023/03/29 00:02:08;;;;;;;256.43;73.13;;;;;;;4.19;54.54;99899.47;350384;28;987;-75
2023/03/29 00:02:18;;;;;;;256.45;73.32;;;;;;;4.22;54.66;99902.88;346633;28;8479;-77
2023/03/29 00:02:29;;;;;;;255.07;73.20;;;;;;;4.25;54.27;99895.06;347540;28;1249;-76
2023/03/29 00:02:39;;;;;;;255.13;73.00;;;;;;;4.25;54.25;99895.06;347663;28;812;-75
2023/03/29 00:02:50;;;;;;;255.00;72.10;;;;;;;4.25;54.61;99897.66;349098;28;896;-75
2023/03/29 00:03:02;;;;;;;255.80;71.70;;;;;;;4.24;54.71;99898.53;347174;28;5870;-75
2023/03/29 00:03:13;;;;;;;256.15;72.45;;;;;;;4.26;54.70;99896.78;347329;28;3280;-75
2023/03/29 00:03:23;;;;;;;256.83;73.07;;;;;;;4.22;55.14;99899.44;346467;28;922;-75
2023/03/29 00:03:34;;;;;;;257.70;74.13;;;;;;;4.23;54.79;99901.13;345545;28;1326;-75
2023/03/29 00:03:46;;;;;;;256.58;73.47;;;;;;;4.19;54.69;99900.31;341782;28;3108;-75
2023/03/29 00:03:56;;;;;;;255.27;74.20;;;;;;;4.18;54.78;99887.38;343182;28;2779;-76
2023/03/29 00:04:08;;;;;;;255.83;74.77;;;;;;;4.21;55.11;99903.75;344756;28;1321;-78
2023/03/29 00:04:19;;;;;;;256.50;74.18;;;;;;;4.19;54.82;99894.28;343943;28;1590;-77
2023/03/29 00:04:29;;;;;;;256.80;72.20;;;;;;;4.19;55.02;99884.78;343997;28;5865;-76
2023/03/29 00:04:40;;;;;;;256.63;71.47;;;;;;;4.16;54.73;99890.00;342184;28;4410;-76
2023/03/29 00:04:52;;;;;;;257.40;72.60;;;;;;;4.16;54.76;99887.41;347386;28;1345;-76
2023/03/29 00:05:03;;;;;;;256.60;72.28;;;;;;;4.10;54.63;99890.03;345327;28;1321;-76
2023/03/29 00:05:15;;;;;;;256.58;71.07;;;;;;;4.10;54.67;99884.88;346359;28;981;-76
2023/03/29 00:05:26;;;;;;;254.70;70.47;;;;;;;4.13;55.30;99884.84;340995;28;3182;-76
2023/03/29 00:05:37;;;;;;;258.10;73.07;;;;;;;4.11;54.91;99881.41;341466;28;1391;-76
2023/03/29 00:05:48;;;;;;;259.63;72.97;;;;;;;4.16;54.88;99895.16;338766;28;970;-76
2023/03/29 00:06:01;;;;;;;260.10;72.77;;;;;;;4.18;54.77;99898.59;336833;29;1287;-76
2023/03/29 00:06:21;;;;;;;256.85;71.35;;;;;;;4.18;54.54;99898.59;333740;29;5669;-76
2023/03/29 00:06:32;;;;;;;255.63;71.25;;;;;;;4.17;54.50;99896.03;340773;29;979;-76
2023/03/29 00:06:46;;;;;;;258.07;71.73;;;;;;;4.15;54.52;99888.28;342172;28;1186;-76
2023/03/29 00:06:56;;;;;;;255.30;71.15;;;;;;;4.14;54.52;99891.72;337346;29;5422;-76
2023/03/29 00:07:07;;;;;;;253.70;70.50;;;;;;;4.13;54.78;99895.19;338243;29;1064;-75
2023/03/29 00:07:17;;;;;;;253.23;70.80;;;;;;;4.15;54.55;99896.03;338456;29;1014;-75
2023/03/29 00:07:29;;;;;;;255.00;73.10;;;;;;;4.19;55.25;99900.31;335725;29;894;-75
2023/03/29 00:07:40;;;;;;;254.68;73.53;;;;;;;4.20;54.55;99891.66;336613;29;5941;-76
2023/03/29 00:08:00;;;;;;;257.88;75.13;;;;;;;4.17;54.86;99889.13;341504;28;3260;-75
2023/03/29 00:08:13;;;;;;;255.82;72.48;;;;;;;4.18;55.27;99903.78;338192;29;937;-76
2023/03/29 00:08:23;;;;;;;253.43;70.85;;;;;;;4.15;55.13;99893.44;338973;28;3150;-74
2023/03/29 00:08:34;;;;;;;254.18;71.35;;;;;;;4.15;54.90;99898.63;337244;29;5205;-75
2023/03/29 00:08:44;;;;;;;254.33;72.10;;;;;;;4.09;55.13;99890.91;339474;29;1246;-76
2023/03/29 00:08:55;;;;;;;254.52;72.03;;;;;;;4.11;54.56;99894.34;339507;29;1290;-75
2023/03/29 00:09:07;;;;;;;254.23;71.23;;;;;;;4.09;55.05;99897.81;338112;29;1273;-75
2023/03/29 00:09:18;;;;;;;253.95;70.65;;;;;;;4.12;55.14;99902.97;337617;29;3297;-75
2023/03/29 00:09:31;;;;;;;253.45;70.68;;;;;;;4.13;55.21;99900.38;336451;29;3502;-75
2023/03/29 00:09:42;;;;;;;252.70;71.05;;;;;;;4.14;55.21;99902.09;334497;29;933;-75
2023/03/29 00:09:53;;;;;;;253.95;72.30;;;;;;;4.16;55.03;99905.53;330291;29;1747;-75
2023/03/29 00:10:04;;;;;;;254.50;73.25;;;;;;;4.16;55.00;99897.75;330082;29;4503;-75
2023/03/29 00:10:14;;;;;;;256.70;74.15;;;;;;;4.19;55.00;99905.50;334150;29;1473;-75
2023/03/29 00:10:25;;;;;;;257.93;75.10;;;;;;;4.22;54.80;99899.44;332821;29;1797;-75
2023/03/29 00:10:35;;;;;;;258.52;75.03;;;;;;;4.23;55.25;99904.59;330290;29;1612;-75
2023/03/29 00:10:47;;;;;;;256.57;74.30;;;;;;;4.20;54.85;99909.81;331350;29;5949;-75
2023/03/29 00:10:58;;;;;;;254.95;72.85;;;;;;;4.20;55.21;99907.22;328220;29;5484;-75
2023/03/29 00:11:08;;;;;;;254.77;71.90;;;;;;;4.22;54.75;99899.44;331583;29;884;-74
2023/03/29 00:11:21;;;;;;;253.93;71.00;;;;;;;4.20;55.25;99909.81;332100;29;1226;-75
2023/03/29 00:11:31;;;;;;;252.73;70.38;;;;;;;4.15;55.35;99896.03;335137;29;1783;-75
2023/03/29 00:11:42;;;;;;;253.93;71.13;;;;;;;4.16;55.13;99905.53;327753;29;6247;-74
2023/03/29 00:11:52;;;;;;;256.50;72.43;;;;;;;4.18;54.97;99906.38;332123;29;2080;-75
2023/03/29 00:12:06;;;;;;;256.67;72.87;;;;;;;4.15;54.82;99897.78;331042;29;2224;-74
2023/03/29 00:12:16;;;;;;;255.98;72.47;;;;;;;4.17;55.04;99904.66;332626;29;3054;-76
2023/03/29 00:12:27;;;;;;;256.70;72.78;;;;;;;4.21;54.76;99908.06;329264;29;6203;-75
2023/03/29 00:12:38;;;;;;;262.30;73.57;;;;;;;4.15;55.00;99903.81;327804;29;2406;-75
2023/03/29 00:12:51;;;;;;;260.85;73.45;;;;;;;4.11;55.10;99902.13;327920;29;2412;-75
2023/03/29 00:13:01;;;;;;;259.08;73.05;;;;;;;4.14;55.22;99902.09;331619;29;1515;-75
2023/03/29 00:13:12;;;;;;;254.47;71.73;;;;;;;4.16;54.84;99900.34;326934;30;5470;-74
2023/03/29 00:13:22;;;;;;;254.10;71.80;;;;;;;4.20;54.70;99907.22;327788;30;3430;-76
2023/03/29 00:13:33;;;;;;;254.27;72.20;;;;;;;4.20;54.71;99912.38;326763;30;1599;-76
2023/03/29 00:13:43;;;;;;;255.70;72.78;;;;;;;4.09;55.07;99893.50;326934;30;1096;-76
2023/03/29 00:13:53;;;;;;;258.40;73.37;;;;;;;4.17;54.71;99899.47;322135;30;3804;-74
2023/03/29 00:14:04;;;;;;;259.10;72.57;;;;;;;4.16;54.71;99904.66;320010;30;5335;-76
2023/03/29 00:14:14;;;;;;;257.87;71.67;;;;;;;4.16;54.97;99908.13;323321;30;1263;-76
2023/03/29 00:14:25;;;;;;;254.02;71.43;;;;;;;4.17;55.03;99907.25;319476;30;3267;-75
2023/03/29 00:14:36;;;;;;;253.83;72.03;;;;;;;4.13;54.68;99913.31;319221;30;3416;-75
2023/03/29 00:14:46;;;;;;;253.32;72.68;;;;;;;4.13;54.80;99920.22;319974;30;6043;-75
2023/03/29 00:14:56;;;;;;;255.10;72.57;;;;;;;4.07;54.42;99910.78;319854;30;1273;-76
2023/03/29 00:15:07;;;;;;;254.60;72.18;;;;;;;4.12;55.20;99913.34;316225;31;3072;-75
2023/03/29 00:15:18;;;;;;;255.68;71.95;;;;;;;4.14;55.10;99904.69;313840;31;2180;-76
2023/03/29 00:15:30;;;;;;;256.17;72.17;;;;;;;4.18;54.90;99911.53;313759;31;3673;-76
2023/03/29 00:15:41;;;;;;;256.70;72.57;;;;;;;4.19;54.76;99909.81;312578;31;3218;-75
2023/03/29 00:15:55;;;;;;;256.80;73.38;;;;;;;4.22;54.83;99922.75;311014;31;2551;-75
2023/03/29 00:16:05;;;;;;;259.52;73.82;;;;;;;4.17;54.98;99909.81;309907;31;3325;-75
2023/03/29 00:16:16;;;;;;;258.65;73.53;;;;;;;4.11;54.86;99915.06;306855;31;3977;-75
2023/03/29 00:16:26;;;;;;;255.60;72.78;;;;;;;4.16;55.07;99913.28;307037;32;3035;-75
2023/03/29 00:16:37;;;;;;;255.63;73.17;;;;;;;4.11;54.70;99911.63;307982;31;4381;-75
2023/03/29 00:16:47;;;;;;;256.70;72.53;;;;;;;4.15;54.62;99923.66;307148;31;4906;-75
2023/03/29 00:16:58;;;;;;;257.97;73.00;;;;;;;4.14;55.24;99907.28;305524;32;5850;-75
2023/03/29 00:17:08;;;;;;;259.35;73.90;;;;;;;4.15;54.86;99910.72;300879;32;5082;-75
2023/03/29 00:17:18;;;;;;;258.33;74.20;;;;;;;4.13;55.00;99905.56;302235;32;4346;-75
2023/03/29 00:17:29;;;;;;;257.48;74.40;;;;;;;4.13;54.96;99910.72;299234;33;818;-75
2023/03/29 00:17:41;;;;;;;256.20;73.50;;;;;;;4.07;55.06;99908.19;304001;32;2904;-76
2023/03/29 00:17:51;;;;;;;257.33;74.13;;;;;;;4.10;54.96;99915.09;296610;32;4296;-75
2023/03/29 00:18:02;;;;;;;256.50;73.45;;;;;;;4.13;54.98;99910.72;296137;32;4433;-75
2023/03/29 00:18:12;;;;;;;255.13;72.10;;;;;;;4.16;55.55;99920.22;296151;33;890;-75
2023/03/29 00:18:23;;;;;;;253.43;70.43;;;;;;;4.13;55.10;99907.28;295608;33;5350;-75
2023/03/29 00:18:33;;;;;;;252.10;69.43;;;;;;;4.12;55.15;99905.56;294420;33;6154;-75
2023/03/29 00:18:44;;;;;;;252.25;70.32;;;;;;;4.11;54.94;99907.31;292148;33;5617;-75
2023/03/29 00:18:54;;;;;;;254.13;71.17;;;;;;;4.12;54.84;99914.19;291213;33;6301;-75
2023/03/29 00:19:04;;;;;;;254.00;70.88;;;;;;;4.14;55.34;99917.63;288370;33;7233;-75
2023/03/29 00:19:16;;;;;;;253.93;71.00;;;;;;;4.15;55.21;99916.75;288340;34;1022;-75
2023/03/29 00:19:27;;;;;;;251.80;71.15;;;;;;;4.18;54.69;99906.38;282986;34;5656;-74
2023/03/29 00:19:38;;;;;;;253.98;72.45;;;;;;;4.11;55.10;99919.38;286766;34;5737;-76
2023/03/29 00:19:48;;;;;;;254.75;72.60;;;;;;;4.10;55.27;99905.59;284762;34;4439;-74
2023/03/29 00:19:59;;;;;;;253.93;72.00;;;;;;;4.10;54.78;99908.16;283755;34;936;-76
2023/03/29 00:20:09;;;;;;;251.48;71.47;;;;;;;4.09;55.39;99922.00;279908;34;5996;-75
2023/03/29 00:20:20;;;;;;;251.63;71.73;;;;;;;4.10;54.85;99915.94;281248;34;7160;-75
2023/03/29 00:20:30;;;;;;;251.52;71.60;;;;;;;4.11;54.78;99917.66;281742;35;1604;-76
2023/03/29 00:20:40;;;;;;;252.63;70.60;;;;;;;4.11;54.61;99917.66;279259;35;8064;-76
2023/03/29 00:20:55;;;;;;;253.00;69.30;;;;;;;4.13;55.09;99920.22;278680;34;9194;-74
2023/03/29 00:21:05;;;;;;;251.23;67.97;;;;;;;4.13;55.16;99910.72;279234;35;8570;-74
2023/03/29 00:21:16;;;;;;;251.18;68.22;;;;;;;4.15;54.67;99918.50;278745;35;9282;-76
2023/03/29 00:21:26;;;;;;;250.20;67.17;;;;;;;4.15;54.99;99919.34;280158;35;858;-75
2023/03/29 00:22:59;;;;;;;239.09;62.41;;;;;;;4.21;55.09;99924.47;2495572;27;20479;-75
2023/03/29 00:23:10;;;;;;;246.83;63.63;;;;;;;4.16;55.00;99918.47;354148;27;3758;-76
2023/03/29 00:23:21;;;;;;;250.20;65.63;;;;;;;4.14;55.13;99912.44;351951;28;5323;-76
2023/03/29 00:23:31;;;;;;;252.48;65.90;;;;;;;4.15;54.58;99919.34;350055;28;1387;-76
2023/03/29 00:23:42;;;;;;;249.77;65.87;;;;;;;4.16;54.75;99915.88;349146;28;835;-75
2023/03/29 00:23:52;;;;;;;246.97;65.73;;;;;;;4.15;54.52;99924.53;349000;28;1325;-76
2023/03/29 00:24:03;;;;;;;247.77;66.28;;;;;;;4.12;54.71;99914.19;343865;28;8136;-76
2023/03/29 00:24:13;;;;;;;247.40;66.33;;;;;;;4.11;54.89;99917.66;347591;28;1304;-76
2023/03/29 00:24:23;;;;;;;246.88;65.35;;;;;;;4.11;55.04;99920.25;347472;28;1208;-76
2023/03/29 00:24:34;;;;;;;246.93;64.67;;;;;;;4.13;54.98;99912.47;346209;28;1254;-75
2023/03/29 00:24:46;;;;;;;247.27;64.82;;;;;;;4.15;54.97;99921.94;348265;28;6005;-74
2023/03/29 00:24:57;;;;;;;246.95;65.88;;;;;;;4.12;54.70;99923.69;348851;28;5602;-74
2023/03/29 00:25:08;;;;;;;246.35;65.28;;;;;;;4.09;54.78;99919.41;350252;28;1330;-74
2023/03/29 00:25:19;;;;;;;244.80;64.75;;;;;;;4.12;54.44;99924.56;347406;28;1301;-76
2023/03/29 00:25:29;;;;;;;246.52;65.35;;;;;;;4.11;54.79;99920.25;345871;28;3833;-75
2023/03/29 00:25:43;;;;;;;247.65;66.13;;;;;;;4.11;55.06;99924.56;345921;28;1357;-75
2023/03/29 00:25:54;;;;;;;247.00;65.93;;;;;;;4.06;54.66;99929.78;347596;28;1274;-75
2023/03/29 00:26:06;;;;;;;247.43;65.37;;;;;;;4.05;54.94;99928.06;347671;28;819;-75
2023/03/29 00:26:16;;;;;;;247.23;65.85;;;;;;;4.01;55.16;99926.38;346804;28;3445;-76
2023/03/29 00:26:27;;;;;;;245.65;65.28;;;;;;;4.06;55.16;99926.34;350316;28;839;-76
2023/03/29 00:26:37;;;;;;;245.33;65.67;;;;;;;4.07;55.15;99936.69;348845;28;1573;-74
2023/03/29 00:26:47;;;;;;;246.55;65.65;;;;;;;4.08;54.91;99928.03;347466;28;1208;-74
2023/03/29 00:26:58;;;;;;;248.57;66.73;;;;;;;4.00;54.87;99914.31;344425;28;3166;-74
2023/03/29 00:27:08;;;;;;;250.27;67.70;;;;;;;4.08;54.72;99928.03;344429;28;5724;-74
2023/03/29 00:27:20;;;;;;;249.55;67.50;;;;;;;4.10;54.59;99926.31;348824;28;1246;-75
2023/03/29 00:27:31;;;;;;;248.02;66.80;;;;;;;4.07;55.01;99928.91;346300;28;955;-75
2023/03/29 00:27:41;;;;;;;246.17;65.90;;;;;;;4.07;54.95;99928.91;345600;28;8117;-75
2023/03/29 00:27:51;;;;;;;244.82;65.22;;;;;;;4.04;54.95;99931.53;345692;28;4698;-76
2023/03/29 00:28:02;;;;;;;244.87;65.00;;;;;;;4.00;54.89;99925.53;348952;28;1345;-76
2023/03/29 00:28:13;;;;;;;243.60;64.28;;;;;;;3.96;54.69;99934.19;347688;28;793;-76
2023/03/29 00:28:24;;;;;;;243.85;63.80;;;;;;;3.95;55.24;99932.47;344898;28;841;-76
2023/03/29 00:28:34;;;;;;;244.93;64.80;;;;;;;3.99;54.50;99933.31;344110;28;5471;-75
2023/03/29 00:28:45;;;;;;;247.32;65.22;;;;;;;4.00;54.96;99937.63;348944;28;1379;-76
2023/03/29 00:28:55;;;;;;;248.70;66.40;;;;;;;3.99;54.89;99933.31;344163;28;1255;-76
2023/03/29 00:29:06;;;;;;;248.47;66.03;;;;;;;4.03;54.57;99934.13;344786;28;1118;-75
2023/03/29 00:29:16;;;;;;;247.15;66.38;;;;;;;4.01;54.86;99926.38;345449;28;3890;-74
2023/03/29 00:29:26;;;;;;;248.37;67.40;;;;;;;3.94;54.96;99929.91;347219;28;5568;-74
2023/03/29 00:29:37;;;;;;;248.07;67.13;;;;;;;3.95;54.68;99932.47;345553;28;1190;-74
2023/03/29 00:29:47;;;;;;;249.33;66.77;;;;;;;3.93;54.58;99934.22;344913;28;1209;-74
2023/03/29 00:29:58;;;;;;;246.55;64.68;;;;;;;3.99;55.17;99930.72;346252;28;1002;-73
2023/03/29 00:30:09;;;;;;;248.50;66.03;;;;;;;3.97;54.92;99935.06;339484;28;5042;-73
2023/03/29 00:30:19;;;;;;;249.68;66.68;;;;;;;3.93;54.70;99933.34;342267;28;1213;-75
2023/03/29 00:30:30;;;;;;;251.10;67.45;;;;;;;3.93;55.02;99938.53;346269;28;824;-74
2023/03/29 00:30:40;;;;;;;249.93;66.57;;;;;;;3.92;54.90;99931.63;345895;28;1374;-74
2023/03/29 00:30:51;;;;;;;247.13;65.75;;;;;;;3.94;54.91;99928.16;343110;28;4836;-75
2023/03/29 00:31:06;;;;;;;245.77;65.13;;;;;;;3.96;54.63;99923.84;343121;28;1209;-74
2023/03/29 00:31:17;;;;;;;243.95;63.90;;;;;;;3.97;54.81;99935.06;339397;29;1395;-76
2023/03/29 00:31:27;;;;;;;244.43;64.37;;;;;;;4.00;54.38;99932.44;343204;28;1455;-75
2023/03/29 00:31:37;;;;;;;244.53;65.67;;;;;;;4.04;54.45;99934.13;338953;28;5752;-74
2023/03/29 00:31:53;;;;;;;247.10;66.90;;;;;;;3.97;54.82;99929.88;337666;29;3547;-75
2023/03/29 00:32:03;;;;;;;247.93;65.60;;;;;;;4.03;54.73;99937.59;338356;29;944;-75
2023/03/29 00:32:14;;;;;;;245.43;63.67;;;;;;;4.03;55.09;99937.59;342220;28;995;-75
2023/03/29 00:32:24;;;;;;;243.30;63.70;;;;;;;4.01;54.90;99932.41;341385;28;3295;-75
2023/03/29 00:32:35;;;;;;;247.82;65.35;;;;;;;3.98;54.44;99927.28;341808;28;1368;-75
2023/03/29 00:32:46;;;;;;;248.35;65.85;;;;;;;3.94;54.60;99924.72;339497;29;1324;-75
2023/03/29 00:32:56;;;;;;;247.93;65.20;;;;;;;3.87;55.40;99928.25;339336;29;1340;-75
2023/03/29 00:33:07;;;;;;;245.52;64.78;;;;;;;3.92;55.01;99936.81;336252;29;1425;-74
2023/03/29 00:33:19;;;;;;;246.40;65.53;;;;;;;3.92;54.92;99926.47;334413;29;5493;-75
2023/03/29 00:33:30;;;;;;;246.20;65.78;;;;;;;3.96;55.20;99926.41;334294;29;1196;-76
2023/03/29 00:33:41;;;;;;;246.78;65.88;;;;;;;3.95;55.19;99939.38;333786;29;1779;-75
2023/03/29 00:33:51;;;;;;;247.77;66.13;;;;;;;3.94;54.68;99929.91;334724;29;8151;-75
2023/03/29 00:34:01;;;;;;;248.32;66.82;;;;;;;3.92;54.51;99926.47;335296;29;3009;-75
2023/03/29 00:34:12;;;;;;;248.80;67.50;;;;;;;3.90;55.07;99928.25;334277;29;1623;-75
2023/03/29 00:34:22;;;;;;;249.00;66.25;;;;;;;3.93;55.02;99938.53;336685;29;1335;-75
2023/03/29 00:34:35;;;;;;;248.33;66.07;;;;;;;3.91;54.81;99935.09;336807;29;944;-75
2023/03/29 00:34:45;;;;;;;245.57;65.13;;;;;;;3.91;54.99;99928.19;335988;29;5434;-74
2023/03/29 00:34:55;;;;;;;246.10;65.70;;;;;;;3.96;54.77;99939.38;337178;29;1518;-75
2023/03/29 00:35:06;;;;;;;247.60;66.00;;;;;;;4.00;54.69;99938.47;338164;29;1904;-75
2023/03/29 00:35:17;;;;;;;246.50;65.38;;;;;;;3.97;54.75;99927.28;337011;29;1346;-75
2023/03/29 00:35:27;;;;;;;245.30;64.63;;;;;;;4.03;54.54;99940.19;337229;29;5791;-75
2023/03/29 00:35:38;;;;;;;246.50;66.00;;;;;;;4.02;54.50;99935.88;334671;29;3473;-75
2023/03/29 00:35:49;;;;;;;247.45;66.68;;;;;;;4.04;54.36;99941.91;333975;29;2559;-75
2023/03/29 00:36:00;;;;;;;247.05;66.43;;;;;;;4.06;54.72;99940.16;334518;29;1671;-75
2023/03/29 00:36:11;;;;;;;248.25;66.15;;;;;;;4.02;54.32;99938.47;333793;29;2475;-75
2023/03/29 00:36:22;;;;;;;248.37;66.73;;;;;;;4.03;54.94;99934.13;329027;29;5502;-75
2023/03/29 00:36:32;;;;;;;248.35;66.97;;;;;;;3.96;54.93;99929.00;328177;30;903;-75
2023/03/29 00:36:42;;;;;;;245.55;66.15;;;;;;;4.01;54.81;99935.00;325516;30;1111;-75
2023/03/29 00:36:56;;;;;;;248.23;67.13;;;;;;;3.98;54.78;99937.63;329386;29;1728;-75
2023/03/29 00:37:08;;;;;;;247.93;66.43;;;;;;;3.95;54.91;99929.03;329976;29;6023;-75
2023/03/29 00:37:18;;;;;;;247.20;65.90;;;;;;;3.99;54.56;99938.47;327363;30;2666;-75
2023/03/29 00:37:29;;;;;;;248.60;66.93;;;;;;;3.97;54.87;99940.22;323442;30;801;-75
2023/03/29 00:37:40;;;;;;;247.75;67.18;;;;;;;3.97;54.91;99940.22;325270;30;2893;-75
2023/03/29 00:37:51;;;;;;;248.23;66.93;;;;;;;3.97;54.91;99943.69;324366;30;3901;-75
2023/03/29 00:38:04;;;;;;;247.90;66.63;;;;;;;3.98;54.65;99937.63;327816;30;5494;-75
2023/03/29 00:38:15;;;;;;;245.18;64.65;;;;;;;3.98;54.67;99932.44;323432;30;944;-74
2023/03/29 00:38:26;;;;;;;243.95;63.42;;;;;;;3.99;55.04;99935.91;321707;30;2713;-74
2023/03/29 00:38:37;;;;;;;244.70;64.40;;;;;;;4.02;54.87;99933.28;319967;30;3792;-74
2023/03/29 00:38:47;;;;;;;245.93;65.32;;;;;;;4.08;54.62;99937.53;318903;30;3214;-75
2023/03/29 00:38:58;;;;;;;246.60;65.97;;;;;;;4.08;54.70;99948.75;321440;30;2055;-75
2023/03/29 00:39:08;;;;;;;246.23;66.07;;;;;;;4.07;54.54;99941.88;320459;30;2721;-75
2023/03/29 00:39:19;;;;;;;245.97;66.03;;;;;;;4.06;54.53;99936.69;321328;30;3839;-74
2023/03/29 00:39:29;;;;;;;246.75;67.05;;;;;;;4.08;54.44;99943.59;320565;30;5188;-74
2023/03/29 00:39:40;;;;;;;248.02;67.32;;;;;;;4.04;54.67;99931.53;321105;30;4500;-74
2023/03/29 00:39:51;;;;;;;248.48;67.70;;;;;;;4.05;54.82;99935.84;318925;30;3994;-75
2023/03/29 00:40:06;;;;;;;248.55;67.63;;;;;;;4.08;54.51;99943.59;320966;30;936;-75
2023/03/29 00:40:17;;;;;;;246.57;66.70;;;;;;;4.01;54.90;99944.50;312851;31;5395;-75
2023/03/29 00:40:27;;;;;;;245.75;65.63;;;;;;;4.04;54.39;99948.81;315377;31;4275;-74
2023/03/29 00:40:42;;;;;;;245.97;65.17;;;;;;;4.03;54.43;99945.34;314137;31;4025;-74
2023/03/29 00:40:52;;;;;;;244.85;64.13;;;;;;;4.05;54.50;99947.94;310871;31;5989;-74
2023/03/29 00:41:03;;;;;;;245.03;65.10;;;;;;;4.03;54.65;99940.19;309810;31;5597;-74
2023/03/29 00:41:14;;;;;;;246.60;65.97;;;;;;;3.97;54.48;99937.63;307526;32;864;-76
2023/03/29 00:41:25;;;;;;;244.82;64.88;;;;;;;3.94;54.50;99945.44;307949;31;4331;-76
2023/03/29 00:41:35;;;;;;;249.90;64.78;;;;;;;3.98;54.37;99941.94;301780;32;5029;-75
2023/03/29 00:41:46;;;;;;;252.80;65.17;;;;;;;4.00;54.43;99942.78;301890;32;3055;-75
2023/03/29 00:41:56;;;;;;;256.40;68.18;;;;;;;4.01;54.62;99941.91;303195;32;5710;-75
2023/03/29 00:42:14;;;;;;;253.23;67.78;;;;;;;4.00;54.62;99945.38;303845;32;6546;-75
2023/03/29 00:42:25;;;;;;;247.18;65.18;;;;;;;3.94;54.79;99935.06;297594;32;6960;-75
2023/03/29 00:42:36;;;;;;;247.77;65.73;;;;;;;3.93;54.43;99941.97;295111;33;5931;-75
2023/03/29 00:42:46;;;;;;;251.95;66.88;;;;;;;3.95;54.71;99942.84;296201;33;838;-75
2023/03/29 00:42:57;;;;;;;253.43;68.17;;;;;;;3.94;54.92;99937.66;294593;33;4987;-75
2023/03/29 00:43:11;;;;;;;248.17;67.53;;;;;;;3.97;55.22;99935.06;294787;33;4253;-75
2023/03/29 00:43:21;;;;;;;248.02;67.43;;;;;;;4.02;55.00;99948.81;292365;33;5538;-75
2023/03/29 00:43:52;;;;;;;250.63;68.67;;;;;;;4.06;54.51;99945.31;290170;33;1329;-75
2023/03/29 00:44:26;;;;;;;246.27;65.28;;;;;;;4.04;54.69;99941.03;288068;34;5174;-74
2023/03/29 00:46:05;;;;;;;240.96;62.61;;;;;;;3.79;54.86;99941.28;2480356;27;20970;-74
2023/03/29 00:46:16;;;;;;;246.97;64.07;;;;;;;3.80;55.31;99936.94;350062;28;5857;-74
2023/03/29 00:46:28;;;;;;;248.00;64.68;;;;;;;3.78;54.96;99933.50;345702;28;3306;-75
2023/03/29 00:46:39;;;;;;;247.60;64.72;;;;;;;3.79;55.41;99943.84;344808;28;1290;-75
2023/03/29 00:46:49;;;;;;;247.53;65.10;;;;;;;3.80;55.44;99937.81;347448;28;1654;-75
2023/03/29 00:47:00;;;;;;;248.48;65.72;;;;;;;3.84;55.43;99938.66;347671;28;800;-75
2023/03/29 00:47:10;;;;;;;249.83;67.10;;;;;;;3.83;54.91;99934.34;344037;28;8045;-74
2023/03/29 00:47:35;;;;;;;249.82;66.57;;;;;;;3.86;55.26;99935.16;343259;28;1307;-74
2023/03/29 00:47:50;;;;;;;246.13;64.38;;;;;;;3.89;54.80;99940.31;340719;29;929;-75
2023/03/29 00:48:02;;;;;;;244.52;64.38;;;;;;;3.91;54.98;99946.31;341928;28;5412;-75
2023/03/29 00:48:31;;;;;;;246.40;65.45;;;;;;;3.93;55.12;99943.72;344088;28;920;-74
2023/03/29 00:48:42;;;;;;;245.93;64.88;;;;;;;3.90;54.99;99942.00;344709;28;4718;-75
2023/03/29 00:48:54;;;;;;;249.23;67.28;;;;;;;3.88;55.22;99940.34;344298;28;1360;-75
2023/03/29 00:49:07;;;;;;;250.32;67.85;;;;;;;3.88;54.90;99935.16;343540;28;1386;-75
2023/03/29 00:49:18;;;;;;;247.35;65.80;;;;;;;3.84;55.57;99933.47;344725;28;1360;-75
2023/03/29 00:49:28;;;;;;;244.82;65.18;;;;;;;3.88;54.83;99945.50;339650;28;5945;-75
2023/03/29 00:49:38;;;;;;;245.60;66.07;;;;;;;3.92;55.24;99942.00;343562;28;865;-75
2023/03/29 00:49:51;;;;;;;246.27;66.72;;;;;;;3.91;55.33;99941.13;343489;28;1509;-75
2023/03/29 00:50:04;;;;;;;246.88;66.80;;;;;;;3.95;55.07;99944.56;344939;28;1067;-75
2023/03/29 00:50:36;;;;;;;248.40;67.00;;;;;;;3.98;55.32;99941.94;343208;28;4774;-75
2023/03/29 00:50:51;;;;;;;246.48;64.82;;;;;;;3.98;55.14;99941.94;344237;28;982;-75
2023/03/29 00:51:04;;;;;;;246.82;65.38;;;;;;;3.97;54.78;99935.91;344707;28;5799;-75
2023/03/29 00:51:15;;;;;;;248.23;65.60;;;;;;;3.97;54.93;99940.22;346234;28;1428;-75
2023/03/29 00:51:26;;;;;;;246.98;65.10;;;;;;;3.91;54.90;99935.09;343415;28;1859;-74
2023/03/29 00:51:37;;;;;;;246.50;64.50;;;;;;;3.96;55.15;99943.69;343679;28;928;-74
2023/03/29 00:51:47;;;;;;;246.48;64.88;;;;;;;3.96;54.78;99934.19;341089;28;3852;-74
2023/03/29 00:51:57;;;;;;;248.47;66.07;;;;;;;3.94;55.02;99940.25;343312;28;3201;-74
2023/03/29 00:52:08;;;;;;;248.30;65.95;;;;;;;4.00;54.97;99940.19;343588;28;775;-74
2023/03/29 00:52:20;;;;;;;246.73;65.90;;;;;;;3.98;54.96;99941.94;342117;28;1073;-76
2023/03/29 00:52:30;;;;;;;245.35;65.38;;;;;;;3.95;54.83;99936.78;339481;28;5887;-76
2023/03/29 00:52:43;;;;;;;246.25;66.15;;;;;;;3.96;55.05;99933.34;340362;28;2932;-75
2023/03/29 00:53:05;;;;;;;249.48;66.60;;;;;;;4.04;55.12;99949.66;340839;29;1433;-75
2023/03/29 00:53:25;;;;;;;246.05;62.58;;;;;;;4.02;54.83;99941.03;340127;29;8177;-75
2023/03/29 00:53:38;;;;;;;244.70;63.28;;;;;;;3.97;55.03;99940.22;336921;29;1419;-76
2023/03/29 00:53:49;;;;;;;245.98;64.25;;;;;;;3.97;55.13;99951.44;340608;28;881;-74
2023/03/29 00:54:00;;;;;;;246.68;64.95;;;;;;;3.92;55.31;99945.44;337105;28;6300;-74
2023/03/29 00:54:13;;;;;;;249.05;66.15;;;;;;;3.89;54.84;99944.63;333488;29;3393;-76
2023/03/29 00:54:25;;;;;;;246.85;66.60;;;;;;;3.85;55.02;99941.22;330467;29;1402;-76
2023/03/29 00:54:36;;;;;;;246.07;66.25;;;;;;;3.89;55.05;99936.88;328116;30;1417;-75
2023/03/29 00:54:48;;;;;;;246.98;66.35;;;;;;;3.87;55.17;99943.78;328006;29;3752;-75
2023/03/29 00:55:01;;;;;;;249.98;66.53;;;;;;;3.80;55.34;99936.94;330962;29;1209;-75
2023/03/29 00:55:15;;;;;;;249.30;66.15;;;;;;;3.82;55.02;99945.56;329672;29;927;-76
2023/03/29 00:55:26;;;;;;;245.15;64.30;;;;;;;3.87;55.56;99942.06;332002;29;3706;-75
2023/03/29 00:55:39;;;;;;;246.65;65.03;;;;;;;3.91;55.41;99945.47;330432;29;5216;-75
2023/03/29 00:56:05;;;;;;;248.75;65.90;;;;;;;3.93;55.25;99946.31;326974;30;859;-75
2023/03/29 00:56:36;;;;;;;244.85;64.93;;;;;;;3.84;55.72;99936.06;323534;30;8368;-75
2023/03/29 00:56:46;;;;;;;245.93;65.07;;;;;;;3.82;55.83;99948.16;323265;30;1902;-74
2023/03/29 00:57:01;;;;;;;245.20;64.45;;;;;;;3.81;55.22;99943.84;322565;30;2022;-74
2023/03/29 00:57:13;;;;;;;247.02;66.43;;;;;;;3.80;55.15;99944.72;321530;30;3086;-74
2023/03/29 00:57:24;;;;;;;247.63;66.63;;;;;;;3.81;55.61;99934.34;320865;30;1228;-74
2023/03/29 00:57:34;;;;;;;247.23;65.43;;;;;;;3.83;55.75;99937.78;318620;31;830;-75
2023/03/29 00:57:45;;;;;;;247.38;65.57;;;;;;;3.80;55.02;99936.94;320279;30;5854;-74
2023/03/29 00:57:55;;;;;;;246.77;65.93;;;;;;;3.80;55.23;99942.13;318192;30;5190;-74